Time;durP1;ratioP1;P1;durP2;ratioP2;P2;SDS_P1;SDS_P2;PMS_P1;PMS_P2;Temp;Humidity;BMP_temperature;BMP_pressure;BME280_temperature;BME280_humidity;BME280_pressure;Samples;Min_cycle;Max_cycle;Signal;HPM_P1;HPM_P2
2023/01/19 00:00:49;;;;;;;;;;;19.90;85.90;;;;;;5094252;28;20343;-45
2023/01/19 00:03:16;;;;;;;;;;;19.90;85.90;;;;;;5093915;28;20387;-46
2023/01/19 00:05:42;;;;;;;;;;;19.90;85.90;;;;;;5093591;28;19908;-46
2023/01/19 00:08:14;;;;;;;;;;;19.80;86.00;;;;;;5093854;28;19908;-47
2023/01/19 00:10:44;;;;;;;;;;;19.80;86.20;;;;;;5093803;28;19919;-44
2023/01/19 00:13:09;;;;;;;;;;;19.80;86.40;;;;;;5093406;28;19953;-46
2023/01/19 00:15:35;;;;;;;;;;;19.80;86.20;;;;;;5093740;28;19909;-46
2023/01/19 00:18:01;;;;;;;;;;;19.80;86.60;;;;;;5093745;28;20382;-45
2023/01/19 00:20:26;;;;;;;;;;;19.80;86.30;;;;;;5095949;28;19953;-45
2023/01/19 00:22:52;;;;;;;;;;;19.80;86.00;;;;;;5097140;28;20319;-47
2023/01/19 00:25:17;;;;;;;;;;;19.80;86.20;;;;;;5079228;28;19908;-48
2023/01/19 00:27:48;;;;;;;;;;;19.80;86.10;;;;;;5079214;28;19908;-45
2023/01/19 00:30:16;;;;;;;;;;;19.80;86.20;;;;;;5097049;28;19912;-46
2023/01/19 00:32:42;;;;;;;;;;;19.80;86.20;;;;;;5097276;28;19982;-47
2023/01/19 00:35:07;;;;;;;;;;;19.80;86.00;;;;;;5097128;28;20367;-45
2023/01/19 00:37:33;;;;;;;;;;;19.80;86.20;;;;;;5096840;28;20053;-47
2023/01/19 00:39:58;;;;;;;;;;;19.80;86.10;;;;;;5097199;28;19908;-44
2023/01/19 00:42:39;;;;;;;;;;;19.90;86.00;;;;;;5097174;28;19912;-44
2023/01/19 00:45:06;;;;;;;;;;;19.90;85.60;;;;;;5096930;28;19912;-45
2023/01/19 00:47:32;;;;;;;;;;;19.90;85.60;;;;;;5097092;28;19953;-44
2023/01/19 00:49:57;;;;;;;;;;;19.90;85.80;;;;;;5096887;28;19916;-46
2023/01/19 00:52:23;;;;;;;;;;;20.00;85.60;;;;;;5097020;28;20323;-47
2023/01/19 00:54:48;;;;;;;;;;;20.00;85.60;;;;;;5096937;28;19963;-46
2023/01/19 00:57:14;;;;;;;;;;;20.00;85.40;;;;;;5096901;28;20354;-48
2023/01/19 00:59:39;;;;;;;;;;;20.00;85.30;;;;;;5096949;28;19908;-44
2023/01/19 01:02:05;;;;;;;;;;;20.10;85.20;;;;;;5096823;28;19953;-45
2023/01/19 01:04:30;;;;;;;;;;;20.10;85.20;;;;;;5096741;28;19930;-44
2023/01/19 01:06:56;;;;;;;;;;;20.10;84.90;;;;;;5096721;28;20000;-46
2023/01/19 01:09:22;;;;;;;;;;;20.10;85.50;;;;;;5096587;28;19948;-46
2023/01/19 01:11:47;;;;;;;;;;;20.10;85.20;;;;;;5096663;28;19958;-45
2023/01/19 01:14:13;;;;;;;;;;;20.10;85.50;;;;;;5096271;28;19908;-44
2023/01/19 01:16:39;;;;;;;;;;;20.20;85.50;;;;;;5096539;28;19933;-44
2023/01/19 01:19:04;;;;;;;;;;;20.20;85.30;;;;;;5096525;28;19916;-48
2023/01/19 01:21:29;;;;;;;;;;;20.30;85.00;;;;;;5096704;28;19908;-44
2023/01/19 01:23:55;;;;;;;;;;;20.30;85.00;;;;;;5096284;28;20252;-45
2023/01/19 01:26:20;;;;;;;;;;;20.30;85.00;;;;;;5096621;28;19957;-45
2023/01/19 01:28:46;;;;;;;;;;;20.30;85.00;;;;;;5096263;28;19908;-46
2023/01/19 01:31:11;;;;;;;;;;;20.30;84.90;;;;;;5096184;28;20412;-45
2023/01/19 01:33:37;;;;;;;;;;;20.20;85.00;;;;;;5095893;28;20010;-45
2023/01/19 01:36:03;;;;;;;;;;;20.10;85.20;;;;;;5096304;28;20239;-48
2023/01/19 01:38:28;;;;;;;;;;;20.00;85.50;;;;;;5096460;28;19998;-46
2023/01/19 01:40:53;;;;;;;;;;;20.00;86.00;;;;;;5095748;28;19912;-47
2023/01/19 01:43:22;;;;;;;;;;;19.90;85.80;;;;;;5095994;28;19908;-46
2023/01/19 01:45:47;;;;;;;;;;;19.80;85.90;;;;;;5095952;28;19908;-45
2023/01/19 01:48:13;;;;;;;;;;;19.80;86.20;;;;;;5095920;28;19909;-45
2023/01/19 01:53:32;;;;;;;;;;;19.90;86.00;;;;;;5095610;28;19963;-46
2023/01/19 01:55:58;;;;;;;;;;;20.10;85.80;;;;;;5095750;28;19978;-46
2023/01/19 01:58:24;;;;;;;;;;;20.20;85.50;;;;;;5095645;28;20347;-44
2023/01/19 02:03:34;;;;;;;;;;;20.30;85.10;;;;;;5095407;28;19916;-48
2023/01/19 02:06:00;;;;;;;;;;;20.30;85.10;;;;;;5095868;28;19908;-46
2023/01/19 02:14:09;;;;;;;;;;;20.10;85.50;;;;;;5095198;28;19919;-44
2023/01/19 02:16:36;;;;;;;;;;;20.00;85.40;;;;;;5095364;28;19908;-48
2023/01/19 02:19:02;;;;;;;;;;;19.90;85.70;;;;;;5095266;28;19962;-46
2023/01/19 02:21:35;;;;;;;;;;;19.90;85.70;;;;;;5095273;28;19908;-45
2023/01/19 02:24:01;;;;;;;;;;;19.80;86.70;;;;;;5095242;28;19919;-45
2023/01/19 02:26:29;;;;;;;;;;;19.80;86.20;;;;;;5095154;28;20383;-44
2023/01/19 02:29:00;;;;;;;;;;;19.90;86.30;;;;;;5094831;28;19912;-44
2023/01/19 02:31:27;;;;;;;;;;;19.90;86.30;;;;;;5076863;28;20095;-46
2023/01/19 02:33:53;;;;;;;;;;;20.10;85.90;;;;;;5094774;28;19916;-46
2023/01/19 02:36:23;;;;;;;;;;;20.20;85.40;;;;;;5094892;28;19920;-47
2023/01/19 02:38:49;;;;;;;;;;;20.30;85.00;;;;;;5095305;28;19977;-46
2023/01/19 02:41:18;;;;;;;;;;;20.30;84.80;;;;;;5094906;28;20003;-46
2023/01/19 02:43:44;;;;;;;;;;;20.40;85.00;;;;;;5092933;28;19919;-45
2023/01/19 02:46:09;;;;;;;;;;;20.30;84.70;;;;;;5096168;28;19918;-47
2023/01/19 02:48:35;;;;;;;;;;;20.30;85.00;;;;;;5093120;28;20337;-46
2023/01/19 02:51:03;;;;;;;;;;;20.20;84.60;;;;;;5079151;28;19945;-46
2023/01/19 02:53:47;;;;;;;;;;;20.10;85.40;;;;;;5093303;28;19919;-47
2023/01/19 02:56:31;;;;;;;;;;;20.10;85.50;;;;;;5092964;28;19920;-44
2023/01/19 02:58:57;;;;;;;;;;;20.00;86.10;;;;;;5090349;28;19912;-46
2023/01/19 03:01:26;;;;;;;;;;;19.90;86.10;;;;;;5093016;28;20006;-44
2023/01/19 03:03:57;;;;;;;;;;;19.80;86.30;;;;;;5092698;28;19912;-46
2023/01/19 03:06:28;;;;;;;;;;;19.80;86.30;;;;;;5095875;28;19916;-45
2023/01/19 03:09:32;;;;;;;;;;;19.70;86.50;;;;;;5092752;28;19954;-46
2023/01/19 03:12:16;;;;;;;;;;;19.70;86.60;;;;;;5031539;28;20016;-46
2023/01/19 03:14:45;;;;;;;;;;;19.60;86.90;;;;;;5028677;28;19913;-45
2023/01/19 03:17:11;;;;;;;;;;;19.70;86.60;;;;;;5057292;28;20270;-44
2023/01/19 03:19:39;;;;;;;;;;;19.60;87.00;;;;;;5077742;28;20347;-46
2023/01/19 03:22:07;;;;;;;;;;;19.60;86.70;;;;;;5094262;28;19912;-50
2023/01/19 03:24:36;;;;;;;;;;;19.70;87.00;;;;;;5093957;28;19912;-46
2023/01/19 03:27:04;;;;;;;;;;;19.70;87.00;;;;;;5093443;28;19912;-47
2023/01/19 03:29:31;;;;;;;;;;;19.70;86.90;;;;;;5094296;28;20011;-46
2023/01/19 03:31:59;;;;;;;;;;;19.80;86.50;;;;;;5093687;28;20442;-45
2023/01/19 03:34:27;;;;;;;;;;;19.80;86.70;;;;;;5093717;28;20366;-46
2023/01/19 03:36:54;;;;;;;;;;;19.80;86.70;;;;;;5094219;28;19996;-46
2023/01/19 03:39:23;;;;;;;;;;;19.90;86.40;;;;;;5093563;28;19908;-48
2023/01/19 03:41:50;;;;;;;;;;;19.90;86.30;;;;;;5093809;28;19915;-47
2023/01/19 03:44:16;;;;;;;;;;;19.90;86.20;;;;;;5091877;28;20003;-45
2023/01/19 03:46:42;;;;;;;;;;;19.90;85.90;;;;;;5093694;28;20012;-46
2023/01/19 03:49:08;;;;;;;;;;;19.90;86.10;;;;;;5094088;28;19998;-45
2023/01/19 03:51:37;;;;;;;;;;;19.90;86.10;;;;;;5094495;28;19912;-44
2023/01/19 03:54:04;;;;;;;;;;;19.90;86.30;;;;;;5093167;28;19917;-48
2023/01/19 03:56:30;;;;;;;;;;;19.90;86.30;;;;;;5097459;28;19915;-45
2023/01/19 03:58:55;;;;;;;;;;;19.90;86.10;;;;;;5097090;28;19908;-44
2023/01/19 04:01:21;;;;;;;;;;;19.90;86.40;;;;;;5097616;28;20356;-45
2023/01/19 04:03:47;;;;;;;;;;;19.90;86.40;;;;;;5097672;28;19930;-45
2023/01/19 04:06:13;;;;;;;;;;;19.90;86.50;;;;;;5097619;28;19954;-47
2023/01/19 04:08:39;;;;;;;;;;;19.80;86.40;;;;;;5097599;28;19912;-47
2023/01/19 04:11:05;;;;;;;;;;;19.80;86.90;;;;;;5097422;28;20007;-44
2023/01/19 04:13:30;;;;;;;;;;;19.80;86.60;;;;;;5097331;28;20000;-46
2023/01/19 04:16:00;;;;;;;;;;;19.80;86.30;;;;;;5097379;28;19908;-47
2023/01/19 04:18:26;;;;;;;;;;;19.80;86.20;;;;;;5097874;28;20359;-49
2023/01/19 04:20:51;;;;;;;;;;;19.80;86.70;;;;;;5097512;28;19908;-46
2023/01/19 04:23:17;;;;;;;;;;;19.80;86.50;;;;;;5097255;28;19915;-48
2023/01/19 04:25:42;;;;;;;;;;;19.80;86.20;;;;;;5097172;28;19916;-46
2023/01/19 04:28:08;;;;;;;;;;;19.90;86.40;;;;;;5097206;28;19915;-48
2023/01/19 04:30:33;;;;;;;;;;;19.80;86.60;;;;;;5096976;28;20045;-46
2023/01/19 04:32:59;;;;;;;;;;;19.90;86.50;;;;;;5097307;28;19918;-46
2023/01/19 04:35:24;;;;;;;;;;;19.90;86.40;;;;;;5097167;28;20420;-47
2023/01/19 04:37:50;;;;;;;;;;;20.00;86.40;;;;;;5097760;28;19920;-50
2023/01/19 04:40:15;;;;;;;;;;;20.00;86.00;;;;;;5078968;28;20251;-45
2023/01/19 04:42:44;;;;;;;;;;;20.10;85.60;;;;;;5096878;28;19908;-48
2023/01/19 04:45:10;;;;;;;;;;;20.10;85.90;;;;;;5097046;28;19919;-48
2023/01/19 04:47:36;;;;;;;;;;;20.10;85.80;;;;;;5096766;28;19908;-46
2023/01/19 04:50:01;;;;;;;;;;;20.20;85.90;;;;;;5096832;28;20307;-44
2023/01/19 04:52:33;;;;;;;;;;;20.20;86.00;;;;;;5097179;28;19919;-46
2023/01/19 04:54:59;;;;;;;;;;;20.20;85.90;;;;;;5096477;28;19908;-47
2023/01/19 04:57:25;;;;;;;;;;;20.10;85.80;;;;;;5096702;28;19912;-44
2023/01/19 04:59:50;;;;;;;;;;;20.10;86.00;;;;;;5096832;28;19908;-44
2023/01/19 05:02:16;;;;;;;;;;;20.00;85.90;;;;;;5096471;28;19908;-48
2023/01/19 05:04:42;;;;;;;;;;;20.00;86.00;;;;;;5096741;28;20239;-49
2023/01/19 05:07:07;;;;;;;;;;;19.90;86.10;;;;;;5096098;28;19999;-45
2023/01/19 05:09:33;;;;;;;;;;;19.90;86.20;;;;;;5078401;28;19977;-45
2023/01/19 05:11:58;;;;;;;;;;;19.80;86.30;;;;;;5096893;28;20353;-47
2023/01/19 05:14:24;;;;;;;;;;;19.80;87.30;;;;;;5096457;28;19931;-49
2023/01/19 05:16:49;;;;;;;;;;;19.80;86.40;;;;;;5096522;28;19908;-44
2023/01/19 05:19:15;;;;;;;;;;;19.80;86.50;;;;;;5096408;28;19908;-45
2023/01/19 05:21:40;;;;;;;;;;;19.80;86.30;;;;;;5096337;28;19915;-45
2023/01/19 05:24:06;;;;;;;;;;;19.70;86.70;;;;;;5096237;28;19949;-47
2023/01/19 05:26:32;;;;;;;;;;;19.70;86.60;;;;;;5095953;28;19908;-45
2023/01/19 05:28:57;;;;;;;;;;;19.80;86.50;;;;;;5095904;28;19912;-46
2023/01/19 05:31:23;;;;;;;;;;;19.80;86.30;;;;;;5095770;28;19919;-50
2023/01/19 05:33:48;;;;;;;;;;;19.80;86.10;;;;;;5095790;28;20254;-45
2023/01/19 05:36:14;;;;;;;;;;;19.80;86.30;;;;;;5095859;28;19920;-46
2023/01/19 05:38:39;;;;;;;;;;;19.80;86.20;;;;;;5095953;28;19908;-48
2023/01/19 05:41:05;;;;;;;;;;;19.90;86.00;;;;;;5095970;28;20264;-46
2023/01/19 05:43:30;;;;;;;;;;;19.90;85.90;;;;;;5095915;28;19916;-47
2023/01/19 05:45:55;;;;;;;;;;;20.00;85.90;;;;;;5095558;28;19915;-46
2023/01/19 05:48:21;;;;;;;;;;;20.00;85.70;;;;;;5095785;28;20347;-46
2023/01/19 05:50:48;;;;;;;;;;;20.00;85.60;;;;;;5095750;28;20335;-47
2023/01/19 05:53:14;;;;;;;;;;;20.10;85.70;;;;;;5095355;28;20002;-45
2023/01/19 05:55:39;;;;;;;;;;;20.10;85.40;;;;;;5095852;28;19950;-44
2023/01/19 05:58:05;;;;;;;;;;;20.10;85.60;;;;;;5095206;28;20324;-46
2023/01/19 06:00:30;;;;;;;;;;;20.10;85.50;;;;;;5095491;28;19915;-48
2023/01/19 06:02:56;;;;;;;;;;;20.10;85.50;;;;;;5095471;28;20354;-49
2023/01/19 06:05:21;;;;;;;;;;;20.10;85.50;;;;;;5095393;28;19908;-47
2023/01/19 06:07:46;;;;;;;;;;;20.00;85.40;;;;;;5095275;28;19962;-49
2023/01/19 06:10:12;;;;;;;;;;;20.00;85.70;;;;;;5095193;28;19919;-45
2023/01/19 06:12:38;;;;;;;;;;;20.00;85.80;;;;;;5095308;28;19912;-44
2023/01/19 06:15:04;;;;;;;;;;;20.00;85.90;;;;;;5095053;28;19908;-49
2023/01/19 06:17:31;;;;;;;;;;;19.90;86.10;;;;;;5075784;28;19946;-44
2023/01/19 06:19:56;;;;;;;;;;;19.90;86.10;;;;;;5094823;28;19912;-46
2023/01/19 06:22:22;;;;;;;;;;;19.90;86.10;;;;;;5094711;28;19958;-47
2023/01/19 06:24:47;;;;;;;;;;;19.90;86.20;;;;;;5094820;28;19908;-47
2023/01/19 06:27:13;;;;;;;;;;;19.90;86.40;;;;;;5095051;28;20404;-47
2023/01/19 06:29:38;;;;;;;;;;;19.90;86.30;;;;;;5094841;28;19952;-45
2023/01/19 06:32:04;;;;;;;;;;;19.80;86.40;;;;;;5094709;28;20018;-45
2023/01/19 06:34:29;;;;;;;;;;;19.80;86.50;;;;;;5094435;28;20302;-47
2023/01/19 06:36:55;;;;;;;;;;;19.80;86.40;;;;;;5094499;28;19954;-46
2023/01/19 06:39:20;;;;;;;;;;;19.80;86.50;;;;;;5094149;28;19994;-48
2023/01/19 06:41:46;;;;;;;;;;;19.80;86.60;;;;;;5094367;28;20003;-46
2023/01/19 06:44:11;;;;;;;;;;;19.80;86.30;;;;;;5094587;28;19908;-47
2023/01/19 06:46:37;;;;;;;;;;;19.80;86.20;;;;;;5076130;28;19908;-46
2023/01/19 06:49:02;;;;;;;;;;;19.80;86.60;;;;;;5094219;28;20151;-49
2023/01/19 06:51:28;;;;;;;;;;;19.80;86.50;;;;;;5094274;28;19963;-45
2023/01/19 06:53:53;;;;;;;;;;;19.80;86.30;;;;;;5076134;28;20385;-50
2023/01/19 06:56:19;;;;;;;;;;;19.80;86.20;;;;;;5094095;28;19914;-45
2023/01/19 06:58:45;;;;;;;;;;;19.80;86.20;;;;;;5091697;28;19930;-46
2023/01/19 07:01:11;;;;;;;;;;;19.80;86.30;;;;;;5092198;28;19924;-49
2023/01/19 07:03:37;;;;;;;;;;;19.90;86.30;;;;;;5092364;28;19993;-46
2023/01/19 07:06:05;;;;;;;;;;;19.90;86.20;;;;;;5095342;28;20248;-46
2023/01/19 07:08:31;;;;;;;;;;;19.90;86.20;;;;;;5074629;28;20339;-47
2023/01/19 07:11:01;;;;;;;;;;;20.00;85.70;;;;;;5092211;28;20050;-47
2023/01/19 07:13:27;;;;;;;;;;;20.00;85.70;;;;;;5074634;28;20035;-45
2023/01/19 07:15:52;;;;;;;;;;;20.00;85.40;;;;;;5094045;28;19912;-47
2023/01/19 07:18:18;;;;;;;;;;;20.10;85.50;;;;;;5094102;28;20271;-49
2023/01/19 07:20:45;;;;;;;;;;;20.10;85.50;;;;;;5094275;28;19920;-46
2023/01/19 07:23:11;;;;;;;;;;;20.10;84.90;;;;;;5107110;28;20345;-45
2023/01/19 07:25:37;;;;;;;;;;;20.20;86.50;;;;;;5104058;28;19908;-48
2023/01/19 07:28:02;;;;;;;;;;;20.10;84.20;;;;;;5108513;28;19947;-45
2023/01/19 07:30:28;;;;;;;;;;;20.00;82.70;;;;;;5099460;28;19962;-47
2023/01/19 07:32:54;;;;;;;;;;;20.00;85.40;;;;;;5094085;28;19947;-50
2023/01/19 07:35:20;;;;;;;;;;;20.00;85.70;;;;;;5094945;28;20450;-49
2023/01/19 07:37:46;;;;;;;;;;;20.00;85.70;;;;;;5084332;28;19920;-48
2023/01/19 07:40:11;;;;;;;;;;;20.00;85.40;;;;;;5098016;28;19920;-48
2023/01/19 07:42:37;;;;;;;;;;;20.00;85.60;;;;;;5101356;28;19916;-53
2023/01/19 07:45:03;;;;;;;;;;;20.00;85.60;;;;;;5100202;28;19908;-45
2023/01/19 07:47:28;;;;;;;;;;;20.00;85.60;;;;;;5093545;28;19914;-46
2023/01/19 07:49:54;;;;;;;;;;;20.00;85.60;;;;;;5106919;28;20422;-46
2023/01/19 07:52:21;;;;;;;;;;;20.10;85.60;;;;;;5114181;28;19918;-47
2023/01/19 07:54:49;;;;;;;;;;;20.10;85.40;;;;;;5114201;28;19908;-46
2023/01/19 07:57:15;;;;;;;;;;;20.10;85.40;;;;;;5110295;28;19912;-47
2023/01/19 07:59:41;;;;;;;;;;;20.10;85.80;;;;;;5093341;28;19916;-45
2023/01/19 08:02:07;;;;;;;;;;;20.10;85.30;;;;;;5093324;28;20275;-47
2023/01/19 08:04:32;;;;;;;;;;;20.10;85.60;;;;;;5072316;28;19912;-46
2023/01/19 08:06:58;;;;;;;;;;;20.10;85.70;;;;;;5089729;28;19912;-44
2023/01/19 08:09:23;;;;;;;;;;;20.10;85.60;;;;;;5092144;28;19934;-45
2023/01/19 08:11:49;;;;;;;;;;;20.10;85.60;;;;;;5093367;28;19912;-44
2023/01/19 08:14:14;;;;;;;;;;;20.10;85.90;;;;;;5095317;28;20018;-44
2023/01/19 08:16:40;;;;;;;;;;;20.10;85.70;;;;;;5110943;28;19998;-47
2023/01/19 08:19:05;;;;;;;;;;;20.00;86.00;;;;;;5113750;28;19907;-44
2023/01/19 08:21:32;;;;;;;;;;;20.00;86.00;;;;;;5111375;28;20404;-48
2023/01/19 08:23:57;;;;;;;;;;;20.00;86.20;;;;;;5099334;28;19923;-47
2023/01/19 08:26:28;;;;;;;;;;;20.00;86.30;;;;;;5092054;28;19912;-50
2023/01/19 08:28:53;;;;;;;;;;;20.00;86.00;;;;;;5092953;28;19914;-52
2023/01/19 08:31:19;;;;;;;;;;;20.00;86.20;;;;;;5094864;28;19916;-49
2023/01/19 08:33:44;;;;;;;;;;;20.00;86.20;;;;;;5096017;28;20006;-47
2023/01/19 08:36:10;;;;;;;;;;;20.00;86.30;;;;;;5109817;28;19974;-50
2023/01/19 08:38:35;;;;;;;;;;;20.00;86.50;;;;;;5091300;28;19924;-46
2023/01/19 08:41:01;;;;;;;;;;;20.00;86.20;;;;;;5076228;28;19936;-49
2023/01/19 08:43:27;;;;;;;;;;;20.00;86.20;;;;;;5095614;28;19915;-48
2023/01/19 08:45:55;;;;;;;;;;;20.00;86.20;;;;;;5095435;28;20019;-50
2023/01/19 08:48:21;;;;;;;;;;;20.00;86.40;;;;;;5079246;28;20321;-47
2023/01/19 08:50:47;;;;;;;;;;;20.00;86.10;;;;;;5093671;28;19966;-46
2023/01/19 08:53:13;;;;;;;;;;;20.10;86.00;;;;;;5078862;28;19926;-45
2023/01/19 08:55:39;;;;;;;;;;;20.10;86.00;;;;;;5111440;28;19925;-47
2023/01/19 08:58:05;;;;;;;;;;;20.10;86.00;;;;;;5096560;28;19912;-46
2023/01/19 09:00:32;;;;;;;;;;;20.10;86.00;;;;;;5094232;28;19912;-46
2023/01/19 09:02:58;;;;;;;;;;;20.10;86.10;;;;;;5097483;28;19911;-47
2023/01/19 09:05:23;;;;;;;;;;;20.10;86.00;;;;;;5088190;28;19912;-47
2023/01/19 09:07:50;;;;;;;;;;;20.10;86.10;;;;;;5096330;28;20383;-48
2023/01/19 09:10:16;;;;;;;;;;;20.00;86.20;;;;;;5075420;28;20286;-48
2023/01/19 09:12:43;;;;;;;;;;;20.00;86.20;;;;;;5097193;28;20287;-48
2023/01/19 09:15:11;;;;;;;;;;;20.10;86.50;;;;;;5078308;28;19908;-46
2023/01/19 09:17:36;;;;;;;;;;;20.00;86.40;;;;;;5105887;28;19919;-47
2023/01/19 09:20:03;;;;;;;;;;;20.00;86.30;;;;;;5116251;28;19908;-45
2023/01/19 09:22:28;;;;;;;;;;;20.10;86.30;;;;;;5076346;28;20424;-51
2023/01/19 09:24:54;;;;;;;;;;;20.20;85.70;;;;;;5101600;28;19916;-54
2023/01/19 09:27:19;;;;;;;;;;;20.20;84.10;;;;;;5112787;28;20282;-47
2023/01/19 09:29:51;;;;;;;;;;;20.30;84.20;;;;;;5099221;28;19947;-48
2023/01/19 09:32:17;;;;;;;;;;;20.30;85.70;;;;;;5083938;28;19920;-50
2023/01/19 09:34:42;;;;;;;;;;;20.30;85.50;;;;;;5084495;28;20363;-46
2023/01/19 09:37:08;;;;;;;;;;;20.20;85.50;;;;;;5095641;28;19920;-51
2023/01/19 09:39:33;;;;;;;;;;;20.20;85.40;;;;;;5092816;28;19912;-49
2023/01/19 09:42:04;;;;;;;;;;;20.20;85.70;;;;;;5094879;28;19943;-47
2023/01/19 09:44:32;;;;;;;;;;;20.10;86.00;;;;;;5095393;28;19921;-48
2023/01/19 09:46:59;;;;;;;;;;;20.00;86.10;;;;;;5095734;28;19931;-51
2023/01/19 09:49:27;;;;;;;;;;;20.00;87.10;;;;;;5098607;28;19919;-46
2023/01/19 09:51:52;;;;;;;;;;;19.90;86.90;;;;;;5105021;28;19916;-45
2023/01/19 09:54:35;;;;;;;;;;;19.80;87.00;;;;;;5094156;28;19961;-47
2023/01/19 09:57:01;;;;;;;;;;;19.80;87.30;;;;;;5091512;28;20004;-47
2023/01/19 09:59:30;;;;;;;;;;;19.70;87.50;;;;;;5095394;28;20358;-50
2023/01/19 10:02:10;;;;;;;;;;;19.70;87.60;;;;;;5094236;28;19919;-47
2023/01/19 10:04:36;;;;;;;;;;;19.70;87.60;;;;;;5095594;28;20054;-47
2023/01/19 10:07:10;;;;;;;;;;;19.70;87.80;;;;;;5108061;28;19961;-50
2023/01/19 10:09:40;;;;;;;;;;;19.70;87.80;;;;;;5103143;28;19995;-47
2023/01/19 10:12:15;;;;;;;;;;;19.60;87.70;;;;;;5100203;28;19929;-46
2023/01/19 10:14:44;;;;;;;;;;;19.70;87.70;;;;;;5115509;28;19908;-49
2023/01/19 10:17:18;;;;;;;;;;;19.60;87.80;;;;;;5112278;28;20024;-46
2023/01/19 10:19:46;;;;;;;;;;;19.70;87.80;;;;;;5115646;28;19915;-50
2023/01/19 10:22:18;;;;;;;;;;;19.70;87.80;;;;;;5096159;28;19919;-49
2023/01/19 10:24:44;;;;;;;;;;;19.70;87.80;;;;;;5095409;28;19908;-47
2023/01/19 10:27:14;;;;;;;;;;;19.70;87.70;;;;;;5097419;28;20018;-49
2023/01/19 10:29:40;;;;;;;;;;;19.70;87.50;;;;;;5115258;28;19946;-48
2023/01/19 10:32:19;;;;;;;;;;;19.80;88.00;;;;;;5096216;28;20449;-48
2023/01/19 10:34:46;;;;;;;;;;;19.80;87.20;;;;;;5111883;28;20014;-49
2023/01/19 10:37:17;;;;;;;;;;;19.80;87.20;;;;;;5082030;28;19951;-47
2023/01/19 10:39:45;;;;;;;;;;;19.90;87.00;;;;;;5105955;28;19922;-48
2023/01/19 10:42:14;;;;;;;;;;;19.90;86.90;;;;;;5104072;28;20420;-46
2023/01/19 10:44:40;;;;;;;;;;;20.00;86.40;;;;;;5092240;28;19977;-46
2023/01/19 10:47:12;;;;;;;;;;;20.00;87.00;;;;;;5083604;28;19915;-51
2023/01/19 10:49:39;;;;;;;;;;;20.00;86.40;;;;;;5108001;28;20002;-49
2023/01/19 10:52:06;;;;;;;;;;;20.00;87.00;;;;;;5102395;28;19970;-51
2023/01/19 10:54:32;;;;;;;;;;;19.90;86.90;;;;;;5094852;28;20366;-49
2023/01/19 10:56:59;;;;;;;;;;;19.90;87.10;;;;;;5092484;28;19919;-49
2023/01/19 10:59:29;;;;;;;;;;;19.90;87.10;;;;;;5092914;28;19916;-46
2023/01/19 11:02:14;;;;;;;;;;;20.00;87.00;;;;;;5075799;28;19916;-48
2023/01/19 11:04:40;;;;;;;;;;;20.00;86.80;;;;;;5092892;28;19970;-47
2023/01/19 11:07:15;;;;;;;;;;;20.10;86.60;;;;;;5097267;28;19912;-51
2023/01/19 11:09:40;;;;;;;;;;;20.10;86.80;;;;;;5075409;28;20355;-50
2023/01/19 11:12:14;;;;;;;;;;;20.20;86.60;;;;;;5094167;28;19941;-49
2023/01/19 11:14:40;;;;;;;;;;;20.20;86.30;;;;;;5093531;28;19908;-47
2023/01/19 11:17:15;;;;;;;;;;;20.30;86.30;;;;;;5093822;28;19908;-53
2023/01/19 11:19:41;;;;;;;;;;;20.30;86.20;;;;;;5094218;28;19954;-48
2023/01/19 11:22:08;;;;;;;;;;;20.30;86.30;;;;;;5093924;28;19909;-54
2023/01/19 11:24:35;;;;;;;;;;;20.20;86.20;;;;;;5093937;28;19908;-51
2023/01/19 11:27:02;;;;;;;;;;;20.20;86.20;;;;;;5075401;28;19908;-54
2023/01/19 11:29:28;;;;;;;;;;;20.10;86.60;;;;;;5093693;28;19909;-50
2023/01/19 11:31:56;;;;;;;;;;;20.10;86.60;;;;;;5093949;28;19972;-51
2023/01/19 11:34:21;;;;;;;;;;;20.00;86.80;;;;;;5093831;28;19919;-52
2023/01/19 11:37:07;;;;;;;;;;;20.00;87.00;;;;;;5094034;28;19920;-51
2023/01/19 11:39:44;;;;;;;;;;;20.10;86.90;;;;;;5092973;28;19909;-53
2023/01/19 11:42:11;;;;;;;;;;;20.10;86.60;;;;;;5109076;28;19912;-52
2023/01/19 11:44:57;;;;;;;;;;;20.20;86.30;;;;;;5093183;28;20402;-51
2023/01/19 11:47:26;;;;;;;;;;;20.40;86.00;;;;;;5097855;28;19916;-46
2023/01/19 11:50:10;;;;;;;;;;;20.60;85.50;;;;;;5113399;28;19907;-48
2023/01/19 11:52:43;;;;;;;;;;;20.60;85.20;;;;;;5101994;28;19919;-47
2023/01/19 11:55:16;;;;;;;;;;;20.70;84.80;;;;;;5094042;28;20350;-46
2023/01/19 11:57:45;;;;;;;;;;;20.70;85.00;;;;;;5093954;28;19908;-46
2023/01/19 12:00:20;;;;;;;;;;;20.60;85.10;;;;;;5102033;28;19964;-47
2023/01/19 12:02:46;;;;;;;;;;;20.50;85.30;;;;;;5103182;28;20003;-46
2023/01/19 12:05:14;;;;;;;;;;;20.40;85.30;;;;;;5098467;28;20010;-49
2023/01/19 12:07:41;;;;;;;;;;;20.10;76.30;;;;;;5101910;28;19947;-51
2023/01/19 12:10:25;;;;;;;;;;;20.00;82.90;;;;;;5095538;28;19911;-48
2023/01/19 12:12:52;;;;;;;;;;;20.00;84.60;;;;;;5113581;28;19911;-47
2023/01/19 12:15:17;;;;;;;;;;;19.90;85.00;;;;;;5114428;28;20300;-45
2023/01/19 12:17:47;;;;;;;;;;;19.90;85.10;;;;;;5118080;28;19908;-47
2023/01/19 12:20:16;;;;;;;;;;;19.90;85.30;;;;;;5111383;28;19912;-48
2023/01/19 12:22:48;;;;;;;;;;;19.90;85.40;;;;;;5099509;28;19920;-50
2023/01/19 12:25:21;;;;;;;;;;;19.90;81.90;;;;;;5092651;28;19916;-46
2023/01/19 12:27:48;;;;;;;;;;;19.90;84.80;;;;;;5093350;28;19912;-47
2023/01/19 12:30:16;;;;;;;;;;;20.00;84.80;;;;;;5096863;28;19912;-47
2023/01/19 12:32:42;;;;;;;;;;;20.10;84.70;;;;;;5095472;28;19917;-49
2023/01/19 12:35:27;;;;;;;;;;;20.20;84.40;;;;;;5078493;28;19919;-51
2023/01/19 12:37:53;;;;;;;;;;;20.30;84.50;;;;;;5094349;28;20028;-47
2023/01/19 12:40:25;;;;;;;;;;;20.30;83.90;;;;;;5075476;28;19962;-47
2023/01/19 12:42:59;;;;;;;;;;;20.40;84.20;;;;;;5076632;28;19916;-50
2023/01/19 12:45:30;;;;;;;;;;;20.40;84.10;;;;;;5058778;28;19912;-51
2023/01/19 12:47:58;;;;;;;;;;;20.40;83.90;;;;;;5075843;28;20405;-51
2023/01/19 12:50:24;;;;;;;;;;;20.40;84.00;;;;;;5105307;28;19916;-49
2023/01/19 12:52:55;;;;;;;;;;;20.40;84.30;;;;;;5096628;28;19918;-52
2023/01/19 12:55:32;;;;;;;;;;;20.30;84.60;;;;;;5097378;28;19962;-51
2023/01/19 12:58:02;;;;;;;;;;;20.20;84.60;;;;;;5113805;28;19952;-49
2023/01/19 13:00:32;;;;;;;;;;;20.10;84.90;;;;;;5078333;28;19908;-47
2023/01/19 13:02:59;;;;;;;;;;;20.10;84.90;;;;;;5096238;28;20373;-47
2023/01/19 13:05:30;;;;;;;;;;;20.10;85.20;;;;;;5096420;28;19908;-49
2023/01/19 13:08:01;;;;;;;;;;;20.00;85.30;;;;;;5101987;28;19912;-51
2023/01/19 13:10:45;;;;;;;;;;;20.00;85.50;;;;;;5058260;28;20429;-47
2023/01/19 13:13:16;;;;;;;;;;;20.00;85.40;;;;;;5083441;28;19915;-51
2023/01/19 13:15:43;;;;;;;;;;;20.00;85.60;;;;;;5116672;28;19908;-47
2023/01/19 13:18:15;;;;;;;;;;;20.00;85.60;;;;;;5116557;28;19982;-48
2023/01/19 13:20:43;;;;;;;;;;;20.00;85.60;;;;;;5116451;28;19914;-45
2023/01/19 13:23:18;;;;;;;;;;;20.00;85.90;;;;;;5116559;28;20002;-47
2023/01/19 13:25:46;;;;;;;;;;;20.00;85.40;;;;;;5108474;28;19919;-49
2023/01/19 13:28:13;;;;;;;;;;;20.00;85.50;;;;;;5095279;28;20382;-52
2023/01/19 13:30:43;;;;;;;;;;;20.10;85.60;;;;;;5079975;28;19919;-50
2023/01/19 13:33:14;;;;;;;;;;;20.10;85.50;;;;;;5098289;28;19963;-48
2023/01/19 13:35:46;;;;;;;;;;;20.10;85.60;;;;;;5103241;28;20002;-49
2023/01/19 13:38:13;;;;;;;;;;;20.10;85.40;;;;;;5077672;28;19943;-54
2023/01/19 13:40:38;;;;;;;;;;;20.20;85.30;;;;;;5095518;28;20377;-49
2023/01/19 13:43:09;;;;;;;;;;;20.20;85.30;;;;;;5095747;28;19908;-52
2023/01/19 13:45:38;;;;;;;;;;;20.20;85.40;;;;;;5096752;28;19914;-48
2023/01/19 13:48:05;;;;;;;;;;;20.20;85.40;;;;;;5115868;28;20039;-49
2023/01/19 13:50:32;;;;;;;;;;;20.20;85.50;;;;;;5077284;28;19919;-47
2023/01/19 13:52:58;;;;;;;;;;;20.10;85.30;;;;;;5106707;28;20312;-52
2023/01/19 13:55:24;;;;;;;;;;;20.20;85.50;;;;;;5116021;28;19964;-52
2023/01/19 13:57:50;;;;;;;;;;;20.10;85.60;;;;;;5115828;28;20269;-52
2023/01/19 14:00:16;;;;;;;;;;;20.10;85.40;;;;;;5103562;28;19941;-49
2023/01/19 14:02:57;;;;;;;;;;;20.20;85.60;;;;;;5111241;28;20303;-51
2023/01/19 14:05:27;;;;;;;;;;;20.20;85.70;;;;;;5097169;28;19954;-51
2023/01/19 14:08:11;;;;;;;;;;;20.10;85.60;;;;;;5115416;28;19908;-47
2023/01/19 14:10:40;;;;;;;;;;;20.20;85.60;;;;;;5089265;28;19919;-47
2023/01/19 14:13:17;;;;;;;;;;;20.20;85.50;;;;;;5095222;28;19942;-46
2023/01/19 14:15:43;;;;;;;;;;;20.20;85.20;;;;;;5095413;28;19915;-51
2023/01/19 14:18:09;;;;;;;;;;;20.20;85.30;;;;;;5103619;28;19908;-47
2023/01/19 14:20:35;;;;;;;;;;;20.30;85.40;;;;;;5105341;28;20271;-48
2023/01/19 14:23:01;;;;;;;;;;;20.30;85.50;;;;;;5103244;28;19973;-46
2023/01/19 14:25:31;;;;;;;;;;;20.30;85.40;;;;;;5083276;28;20416;-49
2023/01/19 14:28:15;;;;;;;;;;;20.30;85.30;;;;;;5103790;28;19908;-48
2023/01/19 14:30:51;;;;;;;;;;;20.30;85.40;;;;;;5101694;28;20374;-48